Time,TemperatureF,DewpointF,PressureIn,WindDirection,WindDirectionDegrees,WindSpeedMPH,WindSpeedGustMPH,Humidity,HourlyPrecipIn,Conditions,Clouds,dailyrainin,SolarRadiationWatts/m^2,SoftwareType,DateUTC
2013-07-02 00:11:00,69.0,48.0,-100.00,NNW,340,7.0,13.0,48,0.00,,,0.00,0.000000,,2013-07-02 07:11:00,
2013-07-02 00:22:00,69.0,48.0,-100.00,NNW,340,7.0,13.0,48,0.00,,,0.00,0.000000,,2013-07-02 07:22:00,
2013-07-02 00:33:00,69.0,48.0,-100.00,NNW,340,7.0,13.0,48,0.00,,,0.00,0.000000,,2013-07-02 07:33:00,
2013-07-02 00:44:00,69.0,48.0,-100.00,NNW,340,7.0,13.0,48,0.00,,,0.00,0.000000,,2013-07-02 07:44:00,
2013-07-02 00:51:00,68.0,48.0,-100.00,NNW,333,7.0,13.0,48,0.00,,,0.00,0.000000,,2013-07-02 07:51:00,
2013-07-02 01:22:00,68.0,48.0,-100.00,NNW,333,7.0,13.0,48,0.00,,,0.00,0.000000,,2013-07-02 08:22:00,
2013-07-02 01:33:00,68.0,48.0,-100.00,NNW,333,7.0,13.0,48,0.00,,,0.00,0.000000,,2013-07-02 08:33:00,
2013-07-02 01:44:00,68.0,48.0,-100.00,NNW,333,7.0,13.0,48,0.00,,,0.00,0.000000,,2013-07-02 08:44:00,
2013-07-02 01:51:00,69.0,47.0,-100.00,North,352,6.0,13.0,46,0.00,,,0.00,0.000000,,2013-07-02 08:51:00,
2013-07-02 02:11:00,69.0,47.0,-100.00,North,352,6.0,13.0,46,0.00,,,0.00,0.000000,,2013-07-02 09:11:00,
2013-07-02 02:22:00,69.0,47.0,-100.00,North,352,6.0,13.0,46,0.00,,,0.00,0.000000,,2013-07-02 09:22:00,
2013-07-02 02:33:00,69.0,47.0,-100.00,North,352,6.0,13.0,46,0.00,,,0.00,0.000000,,2013-07-02 09:33:00,
2013-07-02 02:43:00,69.0,47.0,-100.00,North,352,6.0,13.0,46,0.00,,,0.00,0.000000,,2013-07-02 09:43:00,
2013-07-02 02:51:00,70.0,40.0,-100.00,NE,48,0.0,9.0,34,0.00,,,0.00,0.000000,,2013-07-02 09:51:00,
2013-07-02 03:11:00,70.0,40.0,-100.00,NE,48,0.0,9.0,34,0.00,,,0.00,0.000000,,2013-07-02 10:11:00,
2013-07-02 03:22:00,70.0,40.0,-100.00,NE,48,0.0,9.0,34,0.00,,,0.00,0.000000,,2013-07-02 10:22:00,
2013-07-02 03:33:00,70.0,40.0,-100.00,NE,48,0.0,9.0,34,0.00,,,0.00,0.000000,,2013-07-02 10:33:00,
2013-07-02 03:43:00,70.0,40.0,-100.00,NE,48,0.0,9.0,34,0.00,,,0.00,0.000000,,2013-07-02 10:43:00,
2013-07-02 03:51:00,72.0,41.0,-100.00,NE,49,2.0,8.0,32,0.00,,,0.00,0.000000,,2013-07-02 10:51:00,
2013-07-02 04:22:00,72.0,41.0,-100.00,NE,49,2.0,8.0,32,0.00,,,0.00,0.000000,,2013-07-02 11:22:00,
2013-07-02 04:33:00,72.0,41.0,-100.00,NE,49,2.0,8.0,32,0.00,,,0.00,0.000000,,2013-07-02 11:33:00,
2013-07-02 04:42:00,72.0,41.0,-100.00,NE,49,2.0,8.0,32,0.00,,,0.00,0.000000,,2013-07-02 11:42:00,
2013-07-02 04:51:00,72.0,40.0,-100.00,NE,47,2.0,8.0,31,0.00,,,0.00,0.000000,,2013-07-02 11:51:00,
2013-07-02 05:11:00,72.0,40.0,-100.00,NE,47,2.0,8.0,31,0.00,,,0.00,0.000000,,2013-07-02 12:11:00,
2013-07-02 05:23:00,72.0,40.0,-100.00,NE,47,2.0,8.0,31,0.00,,,0.00,0.000000,,2013-07-02 12:23:00,
2013-07-02 05:33:00,72.0,40.0,-100.00,NE,47,2.0,8.0,31,0.00,,,0.00,0.000000,,2013-07-02 12:33:00,
2013-07-02 05:43:00,72.0,40.0,-100.00,NE,47,2.0,8.0,31,0.00,,,0.00,0.000000,,2013-07-02 12:43:00,
2013-07-02 05:51:00,72.0,40.0,-100.00,NE,48,2.0,10.0,31,0.00,,,0.00,0.000000,,2013-07-02 12:51:00,
2013-07-02 06:11:00,72.0,40.0,-100.00,NE,48,2.0,10.0,31,0.00,,,0.00,0.000000,,2013-07-02 13:11:00,
2013-07-02 06:22:00,72.0,40.0,-100.00,NE,48,2.0,10.0,31,0.00,,,0.00,0.000000,,2013-07-02 13:22:00,
2013-07-02 06:34:00,72.0,40.0,-100.00,NE,48,2.0,10.0,31,0.00,,,0.00,0.000000,,2013-07-02 13:34:00,
2013-07-02 06:43:00,72.0,40.0,-100.00,NE,48,2.0,10.0,31,0.00,,,0.00,0.000000,,2013-07-02 13:43:00,
2013-07-02 06:51:00,75.0,41.0,-100.00,NE,54,3.0,13.0,30,0.00,,,0.00,69.000000,,2013-07-02 13:51:00,
2013-07-02 07:33:00,75.0,41.0,-100.00,NE,54,3.0,13.0,30,0.00,,,0.00,69.000000,,2013-07-02 14:33:00,
2013-07-02 07:43:00,75.0,41.0,-100.00,NE,54,3.0,13.0,30,0.00,,,0.00,69.000000,,2013-07-02 14:43:00,
2013-07-02 07:51:00,79.0,42.0,-100.00,ENE,73,0.0,10.0,27,-99.99,,,0.00,294.000000,,2013-07-02 14:51:00,
2013-07-02 08:33:00,79.0,42.0,-100.00,ENE,73,0.0,10.0,27,-99.99,,,0.00,294.000000,,2013-07-02 15:33:00,
2013-07-02 08:44:00,79.0,42.0,-100.00,ENE,73,0.0,10.0,27,-99.99,,,0.00,294.000000,,2013-07-02 15:44:00,
2013-07-02 09:33:00,82.0,44.0,-100.00,ESE,120,1.0,8.0,26,-99.99,,,0.00,506.000000,,2013-07-02 16:33:00,
2013-07-02 09:43:00,82.0,44.0,-100.00,ESE,120,1.0,8.0,26,-99.99,,,0.00,506.000000,,2013-07-02 16:43:00,
2013-07-02 09:51:00,79.0,43.0,-100.00,ENE,62,1.0,8.0,28,-99.99,,,0.00,457.000000,,2013-07-02 16:51:00,
2013-07-02 10:22:00,79.0,43.0,-100.00,ENE,62,1.0,8.0,28,-99.99,,,0.00,457.000000,,2013-07-02 17:22:00,
2013-07-02 10:33:00,79.0,43.0,-100.00,ENE,62,1.0,8.0,28,-99.99,,,0.00,457.000000,,2013-07-02 17:33:00,
2013-07-02 10:43:00,79.0,43.0,-100.00,ENE,62,1.0,8.0,28,-99.99,,,0.00,457.000000,,2013-07-02 17:43:00,
2013-07-02 11:51:00,87.0,48.0,-100.00,ENE,78,0.0,7.0,26,-99.99,,,0.00,1038.000000,,2013-07-02 18:51:00,
2013-07-02 13:33:00,89.0,51.0,-100.00,South,181,1.0,7.0,27,-99.99,,,0.00,1186.000000,,2013-07-02 20:33:00,
2013-07-02 13:43:00,89.0,51.0,-100.00,South,181,1.0,7.0,27,-99.99,,,0.00,1186.000000,,2013-07-02 20:43:00,
2013-07-02 13:51:00,88.0,49.0,-100.00,South,188,3.0,9.0,26,-99.99,,,0.00,1432.000000,,2013-07-02 20:51:00,
2013-07-02 14:51:00,80.0,46.0,-100.00,WSW,244,4.0,11.0,30,0.00,,,0.00,1221.000000,,2013-07-02 21:51:00,
2013-07-02 15:22:00,80.0,46.0,-100.00,WSW,244,4.0,11.0,30,0.00,,,0.00,1221.000000,,2013-07-02 22:22:00,
2013-07-02 15:33:00,80.0,46.0,-100.00,WSW,244,4.0,11.0,30,0.00,,,0.00,1221.000000,,2013-07-02 22:33:00,
2013-07-02 15:43:00,80.0,46.0,-100.00,WSW,244,4.0,11.0,30,0.00,,,0.00,1221.000000,,2013-07-02 22:43:00,
2013-07-02 15:51:00,82.0,46.0,-100.00,WSW,250,4.0,12.0,28,0.00,,,0.00,1143.000000,,2013-07-02 22:51:00,
2013-07-02 16:11:00,82.0,46.0,-100.00,WSW,250,4.0,12.0,28,0.00,,,0.00,1143.000000,,2013-07-02 23:11:00,
2013-07-02 16:22:00,82.0,46.0,-100.00,WSW,250,4.0,12.0,28,0.00,,,0.00,1143.000000,,2013-07-02 23:22:00,
2013-07-02 16:33:00,82.0,46.0,-100.00,WSW,250,4.0,12.0,28,0.00,,,0.00,1143.000000,,2013-07-02 23:33:00,
2013-07-02 16:44:00,82.0,46.0,-100.00,WSW,250,4.0,12.0,28,0.00,,,0.00,1143.000000,,2013-07-02 23:44:00,
2013-07-02 16:51:00,78.0,44.0,-100.00,West,261,3.0,9.0,30,0.00,,,0.00,739.000000,,2013-07-02 23:51:00,
2013-07-02 17:33:00,78.0,44.0,-100.00,West,261,3.0,9.0,30,0.00,,,0.00,739.000000,,2013-07-03 00:33:00,
2013-07-02 17:44:00,78.0,44.0,-100.00,West,261,3.0,9.0,30,0.00,,,0.00,739.000000,,2013-07-03 00:44:00,
2013-07-02 17:51:00,73.0,41.0,-100.00,ESE,116,6.0,12.0,31,0.00,,,0.00,354.000000,,2013-07-03 00:51:00,
2013-07-02 18:22:00,73.0,41.0,-100.00,ESE,116,6.0,12.0,31,0.00,,,0.00,354.000000,,2013-07-03 01:22:00,
2013-07-02 18:33:00,73.0,41.0,-100.00,ESE,116,6.0,12.0,31,0.00,,,0.00,354.000000,,2013-07-03 01:33:00,
2013-07-02 18:42:00,73.0,41.0,-100.00,ESE,116,6.0,12.0,31,0.00,,,0.00,354.000000,,2013-07-03 01:42:00,
2013-07-02 18:51:00,73.0,41.0,-100.00,WSW,246,12.0,18.0,32,0.00,,,-99.99,345.000000,,2013-07-03 01:51:00,
2013-07-02 19:24:00,73.0,41.0,-100.00,WSW,246,12.0,18.0,32,0.00,,,-99.99,345.000000,,2013-07-03 02:24:00,
2013-07-02 19:36:00,73.0,41.0,-100.00,WSW,246,12.0,18.0,32,0.00,,,-99.99,345.000000,,2013-07-03 02:36:00,
2013-07-02 19:43:00,73.0,41.0,-100.00,WSW,246,12.0,18.0,32,0.00,,,-99.99,345.000000,,2013-07-03 02:43:00,
2013-07-02 19:51:00,70.0,42.0,-100.00,East,80,12.0,20.0,36,0.00,,,0.00,63.000000,,2013-07-03 02:51:00,
2013-07-02 20:12:00,70.0,42.0,-100.00,East,80,12.0,20.0,36,0.00,,,0.00,63.000000,,2013-07-03 03:12:00,
2013-07-02 20:25:00,70.0,42.0,-100.00,East,80,12.0,20.0,36,0.00,,,0.00,63.000000,,2013-07-03 03:25:00,
2013-07-02 20:35:00,70.0,42.0,-100.00,East,80,12.0,20.0,36,0.00,,,0.00,63.000000,,2013-07-03 03:35:00,
2013-07-02 20:44:00,70.0,42.0,-100.00,East,80,12.0,20.0,36,0.00,,,0.00,63.000000,,2013-07-03 03:44:00,
2013-07-02 20:51:00,68.0,42.0,-100.00,ENE,69,10.0,21.0,39,0.00,,,0.00,5.000000,,2013-07-03 03:51:00,
2013-07-02 21:22:00,68.0,42.0,-100.00,ENE,69,10.0,21.0,39,0.00,,,0.00,5.000000,,2013-07-03 04:22:00,
2013-07-02 21:33:00,68.0,42.0,-100.00,ENE,69,10.0,21.0,39,0.00,,,0.00,5.000000,,2013-07-03 04:33:00,
2013-07-02 21:43:00,68.0,42.0,-100.00,ENE,69,10.0,21.0,39,0.00,,,0.00,5.000000,,2013-07-03 04:43:00,
2013-07-02 21:51:00,68.0,41.0,-100.00,WNW,287,10.0,18.0,38,0.00,,,0.00,0.000000,,2013-07-03 04:51:00,
2013-07-02 22:23:00,68.0,41.0,-100.00,WNW,287,10.0,18.0,38,0.00,,,0.00,0.000000,,2013-07-03 05:23:00,
2013-07-02 22:44:00,68.0,41.0,-100.00,WNW,287,10.0,18.0,38,0.00,,,0.00,0.000000,,2013-07-03 05:44:00,
2013-07-02 22:51:00,68.0,42.0,-100.00,NNW,341,12.0,18.0,39,0.00,,,0.00,0.000000,,2013-07-03 05:51:00,
2013-07-02 23:24:00,68.0,42.0,-100.00,NNW,341,12.0,18.0,39,0.00,,,0.00,0.000000,,2013-07-03 06:24:00,
2013-07-02 23:45:00,68.0,42.0,-100.00,NNW,341,12.0,18.0,39,0.00,,,0.00,0.000000,,2013-07-03 06:45:00,
2013-07-02 23:51:00,68.0,42.0,-100.00,North,4,12.0,19.0,39,0.00,,,0.00,0.000000,,2013-07-03 06:51:00,